Terminal Aerodrome Forecast
Issued by NWS Billings, MT

Home | Current Version | Previous Version | Text Only | Print | Product List | Glossary On
Versions: 1 2 3 4 5 6 7 8 9 10 11 12 13 14 15 16 17 18 19 20 21 22 23 24 25 26 27 28 29 30 31 32 33 34 35 36 37 38
732
FTUS45 KBYZ 140537
TAFMLS
TAF
KMLS 140537Z 1406/1506 24008KT P6SM BKN050 WS014/30030KT
     FM141300 27015KT P6SM VCSH SCT015 BKN035
     FM141600 27015G27KT 6SM -SHRASN OVC050
     FM141900 30017G30KT P6SM VCSH SCT030 OVC100
     FM150200 28009KT P6SM BKN050=

USA.gov is the U.S. government's official web portal to all federal, state and local government web resources and services.